Time;durP1;ratioP1;P1;durP2;ratioP2;P2;SDS_P1;SDS_P2;PMS_P1;PMS_P2;Temp;Humidity;BMP_temperature;BMP_pressure;BME280_temperature;BME280_humidity;BME280_pressure;Samples;Min_cycle;Max_cycle;Signal;HPM_P1;HPM_P2
2024/02/07 00:01:03;;;;;;;;;;;;;;;-144.99;100.00;52627.47;5062358;28;19933;-64
2024/02/07 00:03:29;;;;;;;;;;;;;;;-144.99;100.00;52609.13;5068947;28;19924;-63
2024/02/07 00:05:56;;;;;;;;;;;;;;;-144.99;100.00;52598.94;5066387;28;19925;-64
2024/02/07 00:08:24;;;;;;;;;;;;;;;-144.99;100.00;52582.63;5069254;28;19963;-62
2024/02/07 00:10:51;;;;;;;;;;;;;;;-144.99;100.00;52603.00;5065682;28;20174;-65
2024/02/07 00:13:18;;;;;;;;;;;;;;;-144.99;100.00;52603.00;5069601;28;19956;-69
2024/02/07 00:15:45;;;;;;;;;;;;;;;-144.99;100.00;52566.31;5063038;28;19933;-68
2024/02/07 00:18:11;;;;;;;;;;;;;;;-144.99;100.00;52562.25;5057281;28;20029;-66
2024/02/07 00:20:38;;;;;;;;;;;;;;;-144.99;100.00;52578.53;5070931;28;19978;-66
2024/02/07 00:23:07;;;;;;;;;;;;;;;-144.99;100.00;52611.16;5061866;28;20280;-66
2024/02/07 00:25:35;;;;;;;;;;;;;;;-144.99;100.00;52623.38;5069030;28;20370;-66
2024/02/07 00:28:01;;;;;;;;;;;;;;;-144.99;100.00;52582.63;5069284;28;19932;-66
2024/02/07 00:30:29;;;;;;;;;;;;;;;-144.99;100.00;52621.34;5069027;28;20020;-66
2024/02/07 00:32:55;;;;;;;;;;;;;;;-144.99;100.00;52605.03;5057455;28;20374;-64
2024/02/07 00:35:22;;;;;;;;;;;;;;;-144.99;100.00;52586.69;5065825;28;19929;-63
2024/02/07 00:37:48;;;;;;;;;;;;;;;-144.99;100.00;52627.47;5058420;28;20205;-64
2024/02/07 00:40:15;;;;;;;;;;;;;;;-144.99;100.00;52578.53;5068650;28;19932;-63
2024/02/07 00:42:43;;;;;;;;;;;;;;;-144.99;100.00;52566.31;5068867;28;19968;-65
2024/02/07 00:45:09;;;;;;;;;;;;;;;-144.99;100.00;52603.00;5063190;28;19986;-65
2024/02/07 00:47:36;;;;;;;;;;;;;;;-144.99;100.00;52603.00;5065963;28;19971;-64
2024/02/07 00:50:02;;;;;;;;;;;;;;;-144.99;100.00;52613.19;5068811;28;19925;-64
2024/02/07 00:52:28;;;;;;;;;;;;;;;-144.99;100.00;52623.38;5069000;28;19928;-64
2024/02/07 00:54:54;;;;;;;;;;;;;;;-144.99;100.00;52613.19;5069098;28;20147;-64
2024/02/07 00:57:21;;;;;;;;;;;;;;;-144.99;100.00;52582.63;5067417;28;19934;-64
2024/02/07 00:59:49;;;;;;;;;;;;;;;-144.99;100.00;52613.19;5055807;28;19932;-64
2024/02/07 01:02:15;;;;;;;;;;;;;;;-144.99;100.00;52586.69;5067592;28;19928;-64
2024/02/07 01:04:42;;;;;;;;;;;;;;;-144.99;100.00;52607.09;5064617;28;20015;-64
2024/02/07 01:07:08;;;;;;;;;;;;;;;-144.99;100.00;52594.84;5060255;28;19925;-66
2024/02/07 01:09:34;;;;;;;;;;;;;;;-144.99;100.00;52580.59;5061911;28;20017;-66
2024/02/07 01:12:01;;;;;;;;;;;;;;;-144.99;100.00;52560.19;5060291;28;20009;-65
2024/02/07 01:14:27;;;;;;;;;;;;;;;-144.99;100.00;52609.13;5068668;28;19963;-64
2024/02/07 01:16:55;;;;;;;;;;;;;;;-144.99;100.00;52578.53;5064676;28;19960;-66
2024/02/07 01:19:22;;;;;;;;;;;;;;;-144.99;100.00;52629.50;5068551;28;19929;-65
2024/02/07 01:21:49;;;;;;;;;;;;;;;-144.99;100.00;52584.66;5064400;28;19932;-65
2024/02/07 01:24:15;;;;;;;;;;;;;;;-144.99;100.00;52600.97;5068302;28;19990;-65
2024/02/07 01:26:43;;;;;;;;;;;;;;;-144.99;100.00;52607.09;5067737;28;19956;-65
2024/02/07 01:29:09;;;;;;;;;;;;;;;-144.99;100.00;52570.38;5061341;28;20275;-65
2024/02/07 01:31:36;;;;;;;;;;;;;;;-144.99;100.00;52598.94;5066889;28;19950;-65
2024/02/07 01:34:04;;;;;;;;;;;;;;;-144.99;100.00;52578.53;5063421;28;20345;-65
2024/02/07 01:36:30;;;;;;;;;;;;;;;-144.99;100.00;52598.94;5061858;28;20204;-65
2024/02/07 01:38:57;;;;;;;;;;;;;;;-144.99;100.00;52562.25;5055580;28;19979;-65
2024/02/07 01:41:24;;;;;;;;;;;;;;;-144.99;100.00;52607.09;5067832;28;19928;-65
2024/02/07 01:43:51;;;;;;;;;;;;;;;-144.99;100.00;52598.94;5060468;28;20298;-65
2024/02/07 01:46:18;;;;;;;;;;;;;;;-144.99;100.00;52603.00;5060312;28;20397;-66
2024/02/07 01:48:45;;;;;;;;;;;;;;;-144.99;100.00;52525.56;5059742;28;20068;-64
2024/02/07 01:51:13;;;;;;;;;;;;;;;-144.99;100.00;52619.31;5066351;28;19928;-65
2024/02/07 01:53:41;;;;;;;;;;;;;;;-144.99;100.00;52623.38;5066172;28;19971;-65
2024/02/07 01:56:07;;;;;;;;;;;;;;;-144.99;100.00;52574.47;5066093;28;19964;-65
2024/02/07 01:58:35;;;;;;;;;;;;;;;-144.99;100.00;52643.78;5066900;28;19928;-64
2024/02/07 02:01:01;;;;;;;;;;;;;;;-144.99;100.00;52635.63;5064333;28;19948;-65
2024/02/07 02:03:28;;;;;;;;;;;;;;;-144.99;100.00;52574.47;5068597;28;20007;-65
2024/02/07 02:05:55;;;;;;;;;;;;;;;-144.99;100.00;52619.31;5069071;28;19990;-65
2024/02/07 02:08:24;;;;;;;;;;;;;;;-144.99;100.00;52582.63;5064752;28;20015;-65
2024/02/07 02:10:52;;;;;;;;;;;;;;;-144.99;100.00;52615.25;5068035;28;19986;-65
2024/02/07 02:13:18;;;;;;;;;;;;;;;-144.99;100.00;52623.38;5066674;28;20348;-65
2024/02/07 02:15:45;;;;;;;;;;;;;;;-144.99;100.00;52594.84;5069719;28;19974;-66
2024/02/07 02:18:12;;;;;;;;;;;;;;;-144.99;100.00;52558.16;5071872;28;19928;-66
2024/02/07 02:20:38;;;;;;;;;;;;;;;-144.99;100.00;52556.13;5074961;28;20600;-65
2024/02/07 02:23:13;;;;;;;;;;;;;;;-144.99;100.00;52592.81;5071625;28;19925;-65
2024/02/07 02:25:58;;;;;;;;;;;;;;;-144.99;100.00;52594.84;5071928;28;20379;-66
2024/02/07 02:28:37;;;;;;;;;;;;;;;-144.99;100.00;52607.09;5070403;28;20298;-65
2024/02/07 02:31:08;;;;;;;;;;;;;;;-144.99;100.00;52578.53;5068189;28;20274;-65
2024/02/07 02:33:36;;;;;;;;;;;;;;;-144.99;100.00;52586.69;5071515;28;19924;-66
2024/02/07 02:36:04;;;;;;;;;;;;;;;-144.99;100.00;52619.31;5071039;28;19985;-65
2024/02/07 02:38:33;;;;;;;;;;;;;;;-144.99;100.00;52594.84;5064058;28;19956;-64
2024/02/07 02:40:59;;;;;;;;;;;;;;;-144.99;100.00;52594.84;5062667;28;19931;-61
2024/02/07 02:43:27;;;;;;;;;;;;;;;-144.99;100.00;52603.00;5071434;28;20015;-61
2024/02/07 02:45:53;;;;;;;;;;;;;;;-144.99;100.00;52550.00;5070697;28;19974;-62
2024/02/07 02:48:21;;;;;;;;;;;;;;;-144.99;98.96;52584.66;5071085;28;19960;-61
2024/02/07 02:50:48;;;;;;;;;;;;;;;-144.99;98.60;52594.84;5070165;28;19932;-61
2024/02/07 02:53:16;;;;;;;;;;;;;;;-144.99;98.39;52580.59;5070938;28;19925;-62
2024/02/07 02:55:42;;;;;;;;;;;;;;;-144.99;97.48;52590.78;5070353;28;20406;-65
2024/02/07 02:58:10;;;;;;;;;;;;;;;-144.99;97.31;52582.63;5070911;28;20332;-64
2024/02/07 03:00:36;;;;;;;;;;;;;;;-144.99;96.78;52643.78;5065606;28;19928;-64
2024/02/07 03:03:03;;;;;;;;;;;;;;;-144.99;96.17;52635.63;5070911;28;19924;-65
2024/02/07 03:05:56;;;;;;;;;;;;;;;-144.99;96.29;52623.38;5070496;28;19931;-65
2024/02/07 03:08:29;;;;;;;;;;;;;;;-144.99;95.39;52586.69;5070547;28;19931;-63
2024/02/07 03:10:55;;;;;;;;;;;;;;;-144.99;95.89;52582.63;5064177;28;19928;-64
2024/02/07 03:13:22;;;;;;;;;;;;;;;-144.99;95.56;52586.69;5066255;28;19928;-64
2024/02/07 03:15:48;;;;;;;;;;;;;;;-144.99;95.74;52623.38;5066075;28;19932;-65
2024/02/07 03:18:15;;;;;;;;;;;;;;;-144.99;96.02;52607.09;5063218;28;19928;-68
2024/02/07 03:20:43;;;;;;;;;;;;;;;-144.99;96.22;52609.13;5068453;28;19971;-68
2024/02/07 03:23:10;;;;;;;;;;;;;;;-144.99;95.71;52611.16;5068856;28;19932;-68
2024/02/07 03:25:37;;;;;;;;;;;;;;;-144.99;94.99;52607.09;5056562;28;19935;-67
2024/02/07 03:28:10;;;;;;;;;;;;;;;-144.99;95.98;52594.84;5065597;28;19928;-67
2024/02/07 03:30:37;;;;;;;;;;;;;;;-144.99;96.03;52631.53;5069871;28;19994;-67
2024/02/07 03:33:03;;;;;;;;;;;;;;;-144.99;96.24;52607.09;5062094;28;20008;-67
2024/02/07 03:35:30;;;;;;;;;;;;;;;-144.99;95.61;52598.94;5065050;28;19928;-65
2024/02/07 03:37:58;;;;;;;;;;;;;;;-144.99;96.75;52586.69;5062651;28;19973;-61
2024/02/07 03:40:25;;;;;;;;;;;;;;;-144.99;96.87;52598.94;5069514;28;19928;-61
2024/02/07 03:42:52;;;;;;;;;;;;;;;-144.99;97.46;52586.69;5067376;28;19935;-61
2024/02/07 03:45:18;;;;;;;;;;;;;;;-144.99;97.17;52607.09;5063624;28;19929;-61
2024/02/07 03:47:45;;;;;;;;;;;;;;;-144.99;96.49;52607.09;5068773;28;19932;-61
2024/02/07 03:50:12;;;;;;;;;;;;;;;-144.99;97.48;52619.31;5061874;28;19960;-62
2024/02/07 03:52:39;;;;;;;;;;;;;;;-144.99;98.96;52627.47;5068830;28;19971;-62
2024/02/07 03:55:08;;;;;;;;;;;;;;;-144.99;100.00;52590.78;5064363;28;20454;-64
2024/02/07 03:57:34;;;;;;;;;;;;;;;-144.99;100.00;52631.53;5068253;28;19961;-64
2024/02/07 04:00:01;;;;;;;;;;;;;;;-144.99;100.00;52639.69;5063395;28;20003;-66
2024/02/07 04:02:27;;;;;;;;;;;;;;;-144.99;100.00;52590.78;5065946;28;19964;-69
2024/02/07 04:04:54;;;;;;;;;;;;;;;-144.99;100.00;52594.84;5061221;28;19928;-67
2024/02/07 04:07:23;;;;;;;;;;;;;;;-144.99;100.00;52594.84;5061462;28;20446;-68
2024/02/07 04:09:50;;;;;;;;;;;;;;;-144.99;100.00;52623.38;5060093;28;19932;-65
2024/02/07 05:17:17;;;;;;;;;;;;;;;-144.99;94.03;52623.38;5059687;28;20306;-68
2024/02/07 05:19:44;;;;;;;;;;;;;;;-144.99;94.07;52615.25;5060151;28;19956;-69
2024/02/07 05:22:11;;;;;;;;;;;;;;;-144.99;90.43;52635.63;5071409;28;20357;-63
2024/02/07 05:24:39;;;;;;;;;;;;;;;-144.99;88.42;52621.34;5069399;28;19986;-65
2024/02/07 05:27:07;;;;;;;;;;;;;;;-144.99;88.55;52619.31;5066766;28;19924;-67
2024/02/07 05:29:33;;;;;;;;;;;;;;;-144.99;86.42;52637.66;5066234;28;19925;-67
2024/02/07 05:32:00;;;;;;;;;;;;;;;-144.99;85.20;52594.84;5067849;28;20018;-67
2024/02/07 05:34:28;;;;;;;;;;;;;;;-144.99;84.52;52615.25;5062255;28;20370;-66
2024/02/07 05:36:54;;;;;;;;;;;;;;;-144.99;83.71;52611.16;5061962;28;20367;-66
2024/02/07 05:39:22;;;;;;;;;;;;;;;-144.99;82.81;52623.38;5068509;28;20044;-67
2024/02/07 05:41:49;;;;;;;;;;;;;;;-144.99;82.52;52623.38;5066365;28;20409;-66
2024/02/07 05:44:15;;;;;;;;;;;;;;;-144.99;82.56;52619.31;5066389;28;20037;-66
2024/02/07 05:46:42;;;;;;;;;;;;;;;-144.99;82.20;52613.19;5067372;28;19990;-66
2024/02/07 05:49:09;;;;;;;;;;;;;;;-144.99;82.27;52660.09;5065955;28;19931;-66
2024/02/07 05:51:37;;;;;;;;;;;;;;;-144.99;81.14;52603.00;5060954;28;19981;-65
2024/02/07 05:54:03;;;;;;;;;;;;;;;-144.99;80.70;52615.25;5067499;28;19970;-66
2024/02/07 05:56:30;;;;;;;;;;;;;;;-144.99;80.83;52627.47;5060747;28;19989;-64
2024/02/07 05:58:56;;;;;;;;;;;;;;;-144.99;81.11;52633.59;5057138;28;19925;-64
2024/02/07 06:01:23;;;;;;;;;;;;;;;-144.99;81.28;52637.66;5060337;28;19982;-64
2024/02/07 06:03:52;;;;;;;;;;;;;;;-144.99;81.51;52643.78;5067424;28;19932;-67
2024/02/07 06:06:19;;;;;;;;;;;;;;;-144.99;81.91;52631.53;5062666;28;19925;-66
2024/02/07 06:08:49;;;;;;;;;;;;;;;-144.99;81.61;52607.09;5067243;28;20363;-66
2024/02/07 06:11:15;;;;;;;;;;;;;;;-144.99;82.41;52615.25;5070015;28;19924;-66
2024/02/07 06:13:42;;;;;;;;;;;;;;;-144.99;81.73;52643.78;5064559;28;19995;-66
2024/02/07 06:16:08;;;;;;;;;;;;;;;-144.99;81.89;52611.16;5070382;28;19978;-66
2024/02/07 06:18:35;;;;;;;;;;;;;;;-144.99;81.36;52639.69;5069290;28;20347;-66
2024/02/07 06:21:01;;;;;;;;;;;;;;;-144.99;82.15;52617.28;5068579;28;19924;-67
2024/02/07 06:23:28;;;;;;;;;;;;;;;-144.99;82.05;52647.84;5074055;28;19947;-66
2024/02/07 06:25:56;;;;;;;;;;;;;;;-144.99;81.44;52623.38;5066179;28;20235;-65
2024/02/07 06:28:22;;;;;;;;;;;;;;;-144.99;81.37;52627.47;5075749;28;19951;-67
2024/02/07 06:30:49;;;;;;;;;;;;;;;-144.99;81.79;52639.69;5075453;28;19940;-66
2024/02/07 06:33:16;;;;;;;;;;;;;;;-144.99;81.99;52647.84;5075049;28;19933;-67
2024/02/07 06:35:43;;;;;;;;;;;;;;;-144.99;81.82;52653.97;5067683;28;19925;-66
2024/02/07 06:38:09;;;;;;;;;;;;;;;-144.99;81.93;52627.47;5067628;28;19936;-66
2024/02/07 06:40:36;;;;;;;;;;;;;;;-144.99;81.93;52586.69;5063653;28;19951;-66
2024/02/07 06:43:04;;;;;;;;;;;;;;;-144.99;81.37;52647.84;5067537;28;19978;-66
2024/02/07 06:45:31;;;;;;;;;;;;;;;-144.99;81.34;52647.84;5072585;28;20032;-62
2024/02/07 06:47:57;;;;;;;;;;;;;;;-144.99;81.01;52635.63;5076013;28;19928;-76
2024/02/07 06:50:25;;;;;;;;;;;;;;;-144.99;81.35;52627.47;5081484;28;20306;-67
2024/02/07 06:52:51;;;;;;;;;;;;;;;-144.99;80.83;52619.31;5073742;28;20327;-66
2024/02/07 06:55:18;;;;;;;;;;;;;;;-144.99;80.74;52605.03;5078858;28;19982;-66
2024/02/07 06:57:45;;;;;;;;;;;;;;;-144.99;81.10;52668.22;5078080;28;19936;-65
2024/02/07 07:00:14;;;;;;;;;;;;;;;-144.99;81.23;52623.38;5075813;28;19935;-66
2024/02/07 07:02:40;;;;;;;;;;;;;;;-144.99;80.89;52684.53;5075964;28;19970;-66
2024/02/07 07:05:07;;;;;;;;;;;;;;;-144.99;81.33;52647.84;5070629;28;20367;-65
2024/02/07 07:07:34;;;;;;;;;;;;;;;-144.99;81.39;52631.53;5071366;28;19936;-66
2024/02/07 07:10:00;;;;;;;;;;;;;;;-144.99;81.94;52580.59;5065732;28;19935;-68
2024/02/07 07:12:27;;;;;;;;;;;;;;;-144.99;81.91;52611.16;5070433;28;19925;-68
2024/02/07 07:14:53;;;;;;;;;;;;;;;-144.99;82.31;52647.84;5063414;28;19948;-65
2024/02/07 07:17:21;;;;;;;;;;;;;;;-144.99;82.57;52649.88;5076353;28;19928;-74
2024/02/07 07:19:48;;;;;;;;;;;;;;;-144.99;83.26;52615.25;5083277;28;19932;-74
2024/02/07 07:22:14;;;;;;;;;;;;;;;-144.99;83.76;52676.38;5084950;28;20034;-75
2024/02/07 07:24:41;;;;;;;;;;;;;;;-144.99;84.13;52627.47;5076036;28;19960;-74
2024/02/07 07:27:07;;;;;;;;;;;;;;;-144.99;84.70;52631.53;5073918;28;19932;-78
2024/02/07 07:29:34;;;;;;;;;;;;;;;-144.99;85.14;52643.78;5064481;28;19978;-73
2024/02/07 07:32:01;;;;;;;;;;;;;;;-144.99;86.03;52670.28;5072031;28;19985;-73
2024/02/07 07:34:29;;;;;;;;;;;;;;;-144.99;86.44;52678.44;5071699;28;20423;-73
2024/02/07 07:36:55;;;;;;;;;;;;;;;-144.99;86.62;52668.22;5062469;28;19987;-73
2024/02/07 07:39:22;;;;;;;;;;;;;;;-144.99;88.53;52647.84;5063282;28;19932;-75
2024/02/07 07:41:48;;;;;;;;;;;;;;;-144.99;90.26;52629.50;5068670;28;20020;-75
2024/02/07 07:44:15;;;;;;;;;;;;;;;-144.99;91.55;52594.84;5069300;28;20297;-73
2024/02/07 07:46:41;;;;;;;;;;;;;;;-144.99;88.07;52664.16;5072166;28;19962;-68
2024/02/07 07:49:08;;;;;;;;;;;;;;;-144.99;88.25;52631.53;5070869;28;19929;-68
2024/02/07 07:51:36;;;;;;;;;;;;;;;-144.99;86.49;52619.31;5070604;28;20033;-69
2024/02/07 07:54:02;;;;;;;;;;;;;;;-144.99;86.40;52647.84;5058696;28;19964;-67
2024/02/07 07:56:31;;;;;;;;;;;;;;;-144.99;85.28;52635.63;5070256;28;20027;-67
2024/02/07 07:58:57;;;;;;;;;;;;;;;-144.99;84.63;52596.88;5061036;28;19928;-67
2024/02/07 08:01:24;;;;;;;;;;;;;;;-144.99;83.69;52623.38;5071879;28;19924;-72
2024/02/07 08:03:51;;;;;;;;;;;;;;;-144.99;83.52;52623.38;5072507;28;20011;-74
2024/02/07 08:06:17;;;;;;;;;;;;;;;-144.99;83.12;52639.69;5065005;28;19928;-73
2024/02/07 08:08:45;;;;;;;;;;;;;;;-144.99;82.60;52645.81;5060945;28;19963;-73
2024/02/07 08:11:12;;;;;;;;;;;;;;;-144.99;81.98;52627.47;5065978;28;19925;-73
2024/02/07 08:13:39;;;;;;;;;;;;;;;-144.99;80.41;52615.25;5068528;28;19983;-73
2024/02/07 08:16:06;;;;;;;;;;;;;;;-144.99;78.89;52635.63;5067315;28;19928;-73
2024/02/07 08:18:33;;;;;;;;;;;;;;;-144.99;77.45;52647.84;5071595;28;20355;-73
2024/02/07 08:20:59;;;;;;;;;;;;;;;-144.99;77.72;52645.81;5068143;28;20419;-73
2024/02/07 08:23:26;;;;;;;;;;;;;;;-144.99;77.01;52625.44;5069882;28;19929;-73
2024/02/07 08:25:54;;;;;;;;;;;;;;;-144.99;77.22;52603.00;5071485;28;20015;-75
2024/02/07 08:28:21;;;;;;;;;;;;;;;-144.99;77.55;52627.47;5069750;28;19928;-74
2024/02/07 08:30:47;;;;;;;;;;;;;;;-144.99;78.00;52590.78;5069187;28;20387;-74
2024/02/07 08:33:14;;;;;;;;;;;;;;;-144.99;77.18;52594.84;5064343;28;19928;-74
2024/02/07 08:35:40;;;;;;;;;;;;;;;-144.99;77.39;52598.94;5070282;28;19928;-74
2024/02/07 08:38:07;;;;;;;;;;;;;;;-144.99;77.21;52653.97;5078484;28;19929;-74
2024/02/07 08:40:33;;;;;;;;;;;;;;;-144.99;77.88;52578.53;5072299;28;19932;-75
2024/02/07 08:43:03;;;;;;;;;;;;;;;-144.99;77.83;52594.84;5070185;28;19993;-74
2024/02/07 08:45:29;;;;;;;;;;;;;;;-144.99;77.17;52603.00;5077835;28;19942;-76
2024/02/07 08:47:56;;;;;;;;;;;;;;;-144.99;76.82;52594.84;5073684;28;20406;-74
2024/02/07 08:50:23;;;;;;;;;;;;;;;-144.99;76.84;52552.03;5069712;28;19935;-74
2024/02/07 08:52:49;;;;;;;;;;;;;;;-144.99;76.69;52582.63;5069085;28;20385;-74
2024/02/07 08:55:16;;;;;;;;;;;;;;;-144.99;76.63;52586.69;5065692;28;19929;-74
2024/02/07 08:57:42;;;;;;;;;;;;;;;-144.99;75.43;52598.94;5069772;28;19960;-74
2024/02/07 09:00:10;;;;;;;;;;;;;;;-144.99;74.91;52598.94;5072390;28;19948;-74
2024/02/07 09:02:37;;;;;;;;;;;;;;;-144.99;74.88;52566.31;5067537;28;19928;-73
2024/02/07 09:05:04;;;;;;;;;;;;;;;-144.99;74.62;52547.97;5067027;28;20396;-74
2024/02/07 09:07:31;;;;;;;;;;;;;;;-144.99;74.88;52607.09;5072865;28;19935;-74
2024/02/07 09:09:57;;;;;;;;;;;;;;;-144.99;75.50;52582.63;5069033;28;19925;-74
2024/02/07 09:12:24;;;;;;;;;;;;;;;-144.99;75.49;52558.16;5069141;28;19964;-74
2024/02/07 09:14:50;;;;;;;;;;;;;;;-144.99;76.21;52609.13;5069747;28;20057;-73
2024/02/07 09:17:18;;;;;;;;;;;;;;;-144.99;76.80;52598.94;5053550;28;19941;-73
2024/02/07 09:19:45;;;;;;;;;;;;;;;-144.99;77.74;52554.09;5064957;28;19932;-73
2024/02/07 09:22:12;;;;;;;;;;;;;;;-144.99;78.25;52570.38;5068974;28;20411;-73
2024/02/07 09:24:38;;;;;;;;;;;;;;;-144.99;77.96;52603.00;5065859;28;20035;-73
2024/02/07 09:27:05;;;;;;;;;;;;;;;-144.99;77.60;52594.84;5063144;28;19940;-73
2024/02/07 09:29:31;;;;;;;;;;;;;;;-144.99;77.10;52611.16;5064841;28;20021;-74
2024/02/07 09:31:58;;;;;;;;;;;;;;;-144.99;76.45;52588.75;5072200;28;19928;-74
2024/02/07 09:34:26;;;;;;;;;;;;;;;-144.99;76.10;52586.69;5063554;28;19986;-73
2024/02/07 09:36:52;;;;;;;;;;;;;;;-144.99;76.26;52550.00;5067741;28;19970;-74
2024/02/07 09:39:20;;;;;;;;;;;;;;;-144.99;75.67;52598.94;5069030;28;19971;-73
2024/02/07 09:41:47;;;;;;;;;;;;;;;-144.99;73.88;52562.25;5066261;28;20013;-74
2024/02/07 09:44:16;;;;;;;;;;;;;;;-144.99;73.57;52554.09;5064087;28;19924;-74
2024/02/07 09:46:43;;;;;;;;;;;;;;;-144.99;72.83;52603.00;5067290;28;19978;-74
2024/02/07 09:49:11;;;;;;;;;;;;;;;-144.99;71.81;52594.84;5070639;28;19929;-74
2024/02/07 09:51:40;;;;;;;;;;;;;;;-144.99;71.87;52619.31;5066357;28;19949;-74
2024/02/07 09:54:09;;;;;;;;;;;;;;;-144.99;70.73;52537.78;5064840;28;19924;-74
2024/02/07 09:56:36;;;;;;;;;;;;;;;-144.99;70.53;52554.09;5062816;28;20662;-74
2024/02/07 09:59:04;;;;;;;;;;;;;;;-144.99;70.28;52603.00;5067735;28;20365;-74
2024/02/07 10:01:30;;;;;;;;;;;;;;;-144.99;71.14;52598.94;5068203;28;19975;-74
2024/02/07 10:03:58;;;;;;;;;;;;;;;-144.99;69.95;52578.53;5060755;28;20371;-74
2024/02/07 10:06:25;;;;;;;;;;;;;;;-144.99;70.12;52578.53;5069400;28;19963;-75
2024/02/07 10:08:53;;;;;;;;;;;;;;;-144.99;70.17;52611.16;5070710;28;20083;-75
2024/02/07 10:11:20;;;;;;;;;;;;;;;-144.99;70.35;52578.53;5064683;28;19960;-74
2024/02/07 10:13:47;;;;;;;;;;;;;;;-144.99;70.28;52586.69;5055911;28;19932;-74
2024/02/07 10:16:14;;;;;;;;;;;;;;;-144.99;70.94;52600.97;5066617;28;20011;-74
2024/02/07 10:18:41;;;;;;;;;;;;;;;-144.99;70.51;52629.50;5066173;28;20038;-74
2024/02/07 10:21:07;;;;;;;;;;;;;;;-144.99;70.35;52611.16;5066142;28;20052;-73
2024/02/07 10:23:33;;;;;;;;;;;;;;;-144.99;68.43;52607.09;5073464;28;20027;-74
2024/02/07 10:26:01;;;;;;;;;;;;;;;-144.99;68.14;52590.78;5073783;28;19996;-75
2024/02/07 10:28:28;;;;;;;;;;;;;;;-144.99;68.54;52611.16;5073287;28;20342;-74
2024/02/07 10:30:58;;;;;;;;;;;;;;;-144.99;68.68;52594.84;5064318;28;19931;-74
2024/02/07 10:33:25;;;;;;;;;;;;;;;-144.99;69.29;52554.09;5073401;28;20305;-74
2024/02/07 10:36:01;;;;;;;;;;;;;;;-144.99;69.93;52558.16;5067607;28;19974;-74
2024/02/07 10:38:28;;;;;;;;;;;;;;;-144.99;70.03;52558.16;5069807;28;20019;-74
2024/02/07 10:40:55;;;;;;;;;;;;;;;-144.99;69.89;52566.31;5070720;28;19925;-74
2024/02/07 10:43:26;;;;;;;;;;;;;;;-144.99;69.32;52570.38;5072927;28;19928;-73
2024/02/07 10:45:59;;;;;;;;;;;;;;;-144.99;69.36;52586.69;5072736;28;19967;-74
2024/02/07 10:48:25;;;;;;;;;;;;;;;-144.99;69.09;52541.84;5069188;28;19994;-73
2024/02/07 10:50:52;;;;;;;;;;;;;;;-144.99;69.71;52572.44;5071664;28;20003;-74
2024/02/07 10:53:18;;;;;;;;;;;;;;;-144.99;70.50;52635.63;5073330;28;19969;-73
2024/02/07 10:55:45;;;;;;;;;;;;;;;-144.99;71.10;52582.63;5075800;28;19924;-73
2024/02/07 10:58:17;;;;;;;;;;;;;;;-144.99;71.01;52590.78;5067880;28;20335;-72
2024/02/07 11:00:46;;;;;;;;;;;;;;;-144.99;71.21;52570.38;5067651;28;19924;-73
2024/02/07 11:03:13;;;;;;;;;;;;;;;-144.99;71.94;52623.38;5072225;28;20361;-73
2024/02/07 11:05:40;;;;;;;;;;;;;;;-144.99;72.08;52607.09;5071774;28;19928;-74
2024/02/07 11:08:09;;;;;;;;;;;;;;;-144.99;71.89;52598.94;5084888;22;20363;-82
2024/02/07 11:10:37;;;;;;;;;;;;;;;-144.99;72.44;52631.53;5072485;28;19995;-79
2024/02/07 11:13:04;;;;;;;;;;;;;;;-144.99;72.31;52590.78;5073786;28;19935;-81
2024/02/07 11:15:30;;;;;;;;;;;;;;;-144.99;72.19;52656.00;5070618;28;19958;-79
2024/02/07 11:17:58;;;;;;;;;;;;;;;-144.99;71.97;52574.47;5067237;28;19925;-80
2024/02/07 11:20:25;;;;;;;;;;;;;;;-144.99;71.60;52590.78;5055339;28;19936;-81
2024/02/07 11:22:52;;;;;;;;;;;;;;;-144.99;71.27;52603.00;5053164;28;19939;-83
2024/02/07 11:25:20;;;;;;;;;;;;;;;-144.99;70.55;52574.47;5053706;28;20202;-81
2024/02/07 11:27:47;;;;;;;;;;;;;;;-144.99;70.61;52562.25;5056434;28;19925;-82
2024/02/07 11:30:17;;;;;;;;;;;;;;;-144.99;70.58;52598.94;5056479;28;20070;-82
2024/02/07 11:32:47;;;;;;;;;;;;;;;-144.99;69.87;52590.78;5054645;28;20285;-83
2024/02/07 11:35:19;;;;;;;;;;;;;;;-144.99;69.61;52541.84;5054380;28;20022;-80
2024/02/07 11:37:48;;;;;;;;;;;;;;;-144.99;69.41;52543.91;5057515;28;20004;-81
2024/02/07 11:40:15;;;;;;;;;;;;;;;-144.99;68.57;52566.31;5052457;28;20311;-81
2024/02/07 11:42:42;;;;;;;;;;;;;;;-144.99;68.47;52574.47;5053286;28;20465;-82
2024/02/07 11:45:12;;;;;;;;;;;;;;;-144.99;68.46;52578.53;5052290;28;19972;-82
2024/02/07 11:47:42;;;;;;;;;;;;;;;-144.99;67.86;52576.50;5051851;28;19925;-83
2024/02/07 11:50:09;;;;;;;;;;;;;;;-144.99;68.20;52564.28;5058271;28;19929;-82
2024/02/07 11:52:39;;;;;;;;;;;;;;;-144.99;68.06;52594.84;5052057;28;20028;-81
2024/02/07 11:55:09;;;;;;;;;;;;;;;-144.99;69.15;52594.84;5054209;28;19986;-79
2024/02/07 11:57:36;;;;;;;;;;;;;;;-144.99;68.44;52574.47;5052382;28;19924;-82
2024/02/07 12:00:03;;;;;;;;;;;;;;;-144.99;68.21;52600.97;5052485;28;19964;-82
2024/02/07 12:02:29;;;;;;;;;;;;;;;-144.99;67.98;52627.47;5049373;28;20405;-81
2024/02/07 12:04:56;;;;;;;;;;;;;;;-144.99;68.13;52603.00;5049734;28;19925;-83
2024/02/07 12:07:23;;;;;;;;;;;;;;;-144.99;68.48;52621.34;5049981;28;20425;-82
2024/02/07 12:09:51;;;;;;;;;;;;;;;-144.99;68.20;52607.09;5047864;28;20359;-82
2024/02/07 12:12:17;;;;;;;;;;;;;;;-144.99;68.02;52619.31;5059565;28;19932;-82
2024/02/07 12:14:46;;;;;;;;;;;;;;;-144.99;68.82;52656.00;5070665;28;19933;-83
2024/02/07 12:17:12;;;;;;;;;;;;;;;-144.99;69.77;52649.88;5065182;28;19983;-83
2024/02/07 12:19:42;;;;;;;;;;;;;;;-144.99;70.18;52627.47;5070515;28;19939;-82
2024/02/07 12:22:09;;;;;;;;;;;;;;;-144.99;69.51;52611.16;5067379;28;19912;-81
2024/02/07 12:24:35;;;;;;;;;;;;;;;-144.99;69.97;52594.84;5072306;28;19913;-81
2024/02/07 12:27:11;;;;;;;;;;;;;;;-144.99;69.70;52619.31;5067325;28;19933;-81
2024/02/07 12:29:37;;;;;;;;;;;;;;;-144.99;69.83;52615.25;5071901;28;20513;-82
2024/02/07 12:32:04;;;;;;;;;;;;;;;-144.99;69.68;52627.47;5072917;28;19923;-82
2024/02/07 12:34:30;;;;;;;;;;;;;;;-144.99;69.85;52590.78;5071445;28;19980;-80
2024/02/07 12:36:57;;;;;;;;;;;;;;;-144.99;70.32;52566.31;5064543;28;19920;-83
2024/02/07 12:39:23;;;;;;;;;;;;;;;-144.99;70.81;52580.59;5072323;28;19994;-81
2024/02/07 12:41:50;;;;;;;;;;;;;;;-144.99;71.05;52586.69;5053167;28;20427;-83
2024/02/07 12:44:18;;;;;;;;;;;;;;;-144.99;71.51;52586.69;5070766;28;19929;-79
2024/02/07 12:46:44;;;;;;;;;;;;;;;-144.99;71.64;52635.63;5067345;28;19920;-85
2024/02/07 12:49:11;;;;;;;;;;;;;;;-144.99;71.62;52582.63;5063135;28;19970;-81
2024/02/07 12:51:37;;;;;;;;;;;;;;;-144.99;71.49;52598.94;5053040;28;19995;-82
2024/02/07 12:54:04;;;;;;;;;;;;;;;-144.99;71.32;52586.69;5052900;28;19994;-82
2024/02/07 12:56:31;;;;;;;;;;;;;;;-144.99;70.80;52570.38;5042213;28;19924;-82
2024/02/07 12:58:57;;;;;;;;;;;;;;;-144.99;71.05;52598.94;5064916;28;19912;-82
2024/02/07 13:01:25;;;;;;;;;;;;;;;-144.99;71.33;52562.25;5061252;28;19932;-81
2024/02/07 13:03:52;;;;;;;;;;;;;;;-144.99;71.14;52603.00;5068596;28;19929;-83
2024/02/07 13:06:20;;;;;;;;;;;;;;;-144.99;70.74;52625.44;5062856;28;19928;-83
2024/02/07 13:08:47;;;;;;;;;;;;;;;-144.99;71.21;52590.78;5052087;28;20111;-83
2024/02/07 13:11:14;;;;;;;;;;;;;;;-144.99;70.95;52562.25;5055990;28;19986;-82
2024/02/07 13:13:40;;;;;;;;;;;;;;;-144.99;70.73;52598.94;5055204;28;19956;-82
2024/02/07 13:16:08;;;;;;;;;;;;;;;-144.99;70.81;52586.69;5046409;28;19925;-83
2024/02/07 13:18:36;;;;;;;;;;;;;;;-144.99;70.25;52541.84;5053800;28;19956;-80
2024/02/07 13:21:05;;;;;;;;;;;;;;;-144.99;69.37;52586.69;5060943;28;20416;-80
2024/02/07 13:23:33;;;;;;;;;;;;;;;-144.99;68.85;52598.94;5049000;28;19937;-80
2024/02/07 13:26:00;;;;;;;;;;;;;;;-144.99;68.54;52615.25;5046397;28;20031;-81
2024/02/07 13:28:26;;;;;;;;;;;;;;;-144.99;68.85;52603.00;5050608;28;20176;-82
2024/02/07 13:30:52;;;;;;;;;;;;;;;-144.99;68.17;52566.31;5048426;28;20012;-82